Time;durP1;ratioP1;P1;durP2;ratioP2;P2;SDS_P1;SDS_P2;PMS_P1;PMS_P2;Temp;Humidity;BMP_temperature;BMP_pressure;BME280_temperature;BME280_humidity;BME280_pressure;Samples;Min_cycle;Max_cycle;Signal;HPM_P1;HPM_P2
2023/08/14 00:00:55;;;;;;;6.17;3.80;;;19.00;99.90;;;;;;4956817;28;20233;-82
2023/08/14 00:03:21;;;;;;;11.03;3.97;;;19.00;1.00;;;;;;4960261;28;20625;-83
2023/08/14 00:05:46;;;;;;;6.47;3.50;;;19.00;1.00;;;;;;4957884;28;20214;-83
2023/08/14 00:08:12;;;;;;;8.83;3.40;;;19.00;1.00;;;;;;4960929;28;22374;-81
2023/08/14 00:10:37;;;;;;;7.67;4.00;;;19.00;1.00;;;;;;4957688;28;20268;-83
2023/08/14 00:13:03;;;;;;;6.23;4.03;;;18.90;1.00;;;;;;4961894;28;20192;-81
2023/08/14 00:15:28;;;;;;;6.73;3.47;;;18.90;1.00;;;;;;4950765;28;20196;-81
2023/08/14 00:17:54;;;;;;;5.27;3.17;;;18.90;1.00;;;;;;4955568;28;20460;-82
2023/08/14 00:20:20;;;;;;;6.37;3.10;;;18.80;1.00;;;;;;4957513;28;20241;-83
2023/08/14 00:22:45;;;;;;;6.60;4.20;;;18.80;1.00;;;;;;4953052;28;20294;-82
2023/08/14 00:25:11;;;;;;;7.40;3.07;;;18.80;1.00;;;;;;4959484;28;20190;-83
2023/08/14 00:27:37;;;;;;;9.63;3.13;;;18.80;99.90;;;;;;4954331;28;20583;-81
2023/08/14 00:30:03;;;;;;;5.90;3.27;;;18.70;99.90;;;;;;4957861;28;20463;-80
2023/08/14 00:32:28;;;;;;;7.20;3.07;;;18.70;99.90;;;;;;4959272;28;20204;-82
2023/08/14 00:34:54;;;;;;;7.73;2.97;;;18.70;99.90;;;;;;4950788;28;20475;-81
2023/08/14 00:37:22;;;;;;;6.23;3.30;;;18.60;99.90;;;;;;4954614;28;20216;-83
2023/08/14 00:39:48;;;;;;;3.00;2.70;;;18.60;99.90;;;;;;4956880;28;20203;-84
2023/08/14 00:42:14;;;;;;;5.97;3.10;;;18.60;99.90;;;;;;4959074;28;20650;-83
2023/08/14 00:44:39;;;;;;;6.90;3.37;;;18.60;99.90;;;;;;4960941;28;20184;-81
2023/08/14 00:47:06;;;;;;;5.47;3.37;;;18.50;99.90;;;;;;4956258;28;20207;-83
2023/08/14 00:49:32;;;;;;;8.13;3.73;;;18.50;99.90;;;;;;4957028;28;20249;-84
2023/08/14 00:52:00;;;;;;;7.40;3.23;;;18.50;99.90;;;;;;4950658;28;21197;-82
2023/08/14 00:54:25;;;;;;;8.03;3.47;;;18.50;99.90;;;;;;4962234;28;20547;-80
2023/08/14 00:56:51;;;;;;;6.10;3.40;;;18.50;99.90;;;;;;4959787;28;20929;-80
2023/08/14 00:59:16;;;;;;;5.80;3.20;;;18.50;99.90;;;;;;4960366;28;20752;-83
2023/08/14 01:01:42;;;;;;;5.10;3.07;;;18.50;95.90;;;;;;4960384;28;20840;-82
2023/08/14 01:04:07;;;;;;;6.33;3.10;;;18.40;99.90;;;;;;4958093;28;20238;-83
2023/08/14 01:06:33;;;;;;;7.50;3.40;;;18.40;98.80;;;;;;4955331;28;20195;-83
2023/08/14 01:08:59;;;;;;;4.63;3.13;;;18.40;99.90;;;;;;4954685;28;20270;-83
2023/08/14 01:11:54;;;;;;;6.33;3.57;;;18.30;99.90;;;;;;4960451;28;20190;-83
2023/08/14 01:14:25;;;;;;;6.17;2.80;;;18.20;99.90;;;;;;4949564;28;20223;-80
2023/08/14 01:16:58;;;;;;;11.73;2.97;;;18.20;99.90;;;;;;4978286;28;20460;-80
2023/08/14 01:19:34;;;;;;;6.60;2.83;;;18.20;99.90;;;;;;4964109;28;20471;-83
2023/08/14 01:22:29;;;;;;;10.17;3.87;;;18.10;99.90;;;;;;4961321;28;20451;-82
2023/08/14 01:25:19;;;;;;;6.17;3.20;;;18.10;99.90;;;;;;4960374;28;20473;-83
2023/08/14 01:27:46;;;;;;;5.70;3.17;;;18.00;1.00;;;;;;4959378;28;20466;-82
2023/08/14 01:30:12;;;;;;;5.47;3.10;;;18.00;99.90;;;;;;4963712;28;20460;-81
2023/08/14 01:32:37;;;;;;;4.27;3.43;;;18.00;99.90;;;;;;4961297;28;20446;-80
2023/08/14 01:35:03;;;;;;;7.27;3.10;;;18.00;99.90;;;;;;4962705;28;20438;-82
2023/08/14 01:37:49;;;;;;;6.40;2.80;;;18.00;99.90;;;;;;4964300;28;20194;-83
2023/08/14 01:40:26;;;;;;;10.53;3.80;;;18.00;99.90;;;;;;4978631;28;20481;-83
2023/08/14 01:42:58;;;;;;;5.20;3.67;;;17.90;99.90;;;;;;4957952;28;20497;-82
2023/08/14 01:45:25;;;;;;;8.20;4.50;;;17.90;99.90;;;;;;4963471;28;20449;-82
2023/08/14 01:47:54;;;;;;;8.67;4.00;;;17.80;1.00;;;;;;4959484;28;20492;-82
2023/08/14 01:50:23;;;;;;;8.10;4.40;;;17.80;1.00;;;;;;4964467;28;20469;-82
2023/08/14 01:52:48;;;;;;;10.50;3.87;;;17.80;1.00;;;;;;4959308;28;20446;-81
2023/08/14 01:55:14;;;;;;;8.17;4.37;;;17.80;1.00;;;;;;4963713;28;20459;-82
2023/08/14 01:57:39;;;;;;;10.93;4.10;;;17.70;1.00;;;;;;4958800;28;20188;-83
2023/08/14 02:00:08;;;;;;;11.67;4.00;;;17.70;1.00;;;;;;4967436;28;20210;-80
2023/08/14 02:02:36;;;;;;;6.47;3.47;;;17.70;22.30;;;;;;4961049;28;20194;-82
2023/08/14 02:05:02;;;;;;;10.67;4.17;;;17.70;31.30;;;;;;4956999;28;20446;-81
2023/08/14 02:07:27;;;;;;;8.20;4.00;;;17.60;99.90;;;;;;4959655;28;20459;-84
2023/08/14 02:09:53;;;;;;;8.07;3.90;;;17.60;99.90;;;;;;4967010;28;20457;-81
2023/08/14 02:12:18;;;;;;;6.53;3.83;;;17.60;99.90;;;;;;4960765;28;20271;-82
2023/08/14 02:14:44;;;;;;;8.77;4.03;;;17.60;99.90;;;;;;4963065;28;20803;-82
2023/08/14 02:17:09;;;;;;;10.47;4.70;;;17.50;1.00;;;;;;4959313;28;20194;-81
2023/08/14 02:19:35;;;;;;;8.50;4.63;;;17.50;1.00;;;;;;4960228;28;20262;-81
2023/08/14 02:22:01;;;;;;;8.80;3.57;;;17.50;1.00;;;;;;4958405;28;20183;-82
2023/08/14 02:24:26;;;;;;;11.33;4.93;;;17.50;1.00;;;;;;4956529;28;20533;-80
2023/08/14 02:26:52;;;;;;;9.83;4.23;;;17.40;1.00;;;;;;4957751;28;20192;-81
2023/08/14 02:29:18;;;;;;;7.33;4.13;;;17.40;1.00;;;;;;4959084;28;20229;-82
2023/08/14 02:31:45;;;;;;;7.13;4.00;;;17.40;1.00;;;;;;4961928;28;20250;-84
2023/08/14 02:34:11;;;;;;;7.50;3.83;;;17.40;74.40;;;;;;4955923;28;20206;-81
2023/08/14 02:36:36;;;;;;;8.00;3.83;;;17.40;92.30;;;;;;4963040;28;20605;-82
2023/08/14 02:39:02;;;;;;;8.40;4.20;;;17.40;70.50;;;;;;4958662;28;20264;-80
2023/08/14 02:41:29;;;;;;;17.63;4.30;;;17.40;84.20;;;;;;4961341;28;20217;-83
2023/08/14 02:43:54;;;;;;;6.30;3.60;;;17.40;48.40;;;;;;4958196;28;20462;-82
2023/08/14 02:46:20;;;;;;;8.63;4.33;;;17.40;91.60;;;;;;4956355;28;20450;-82
2023/08/14 02:48:45;;;;;;;7.43;3.50;;;17.30;41.20;;;;;;4958962;28;20270;-82
2023/08/14 02:51:11;;;;;;;9.53;3.90;;;17.30;94.20;;;;;;4952706;28;20179;-82
2023/08/14 02:53:36;;;;;;;8.23;3.83;;;17.30;10.30;;;;;;4954105;28;20185;-81
2023/08/14 02:56:02;;;;;;;4.57;3.50;;;17.30;1.00;;;;;;4954058;28;20194;-81
2023/08/14 02:58:30;;;;;;;8.17;4.20;;;17.30;1.00;;;;;;4960402;28;20313;-80
2023/08/14 03:00:55;;;;;;;6.30;3.17;;;17.30;1.00;;;;;;4951635;28;20215;-81
2023/08/14 03:03:21;;;;;;;4.53;3.60;;;17.30;1.00;;;;;;4959937;28;20452;-82
2023/08/14 03:05:46;;;;;;;7.17;3.53;;;17.20;1.00;;;;;;4955057;28;20186;-84
2023/08/14 03:08:12;;;;;;;6.63;3.10;;;17.20;1.00;;;;;;4957124;28;20214;-80
2023/08/14 03:10:37;;;;;;;6.73;3.27;;;17.20;1.00;;;;;;4957708;28;20215;-82
2023/08/14 03:13:03;;;;;;;6.00;3.83;;;17.20;12.00;;;;;;4954478;28;20254;-83
2023/08/14 03:15:29;;;;;;;11.67;3.30;;;17.10;7.20;;;;;;4959340;28;20579;-82
2023/08/14 03:17:54;;;;;;;7.33;3.27;;;17.10;3.20;;;;;;4957521;28;20200;-81
2023/08/14 03:20:20;;;;;;;5.37;3.37;;;17.10;30.00;;;;;;4954666;28;20212;-82
2023/08/14 03:22:46;;;;;;;8.03;3.20;;;17.10;99.90;;;;;;4959532;28;20185;-81
2023/08/14 03:25:11;;;;;;;5.20;2.87;;;17.10;99.90;;;;;;4951549;28;20204;-79
2023/08/14 03:27:37;;;;;;;12.77;4.67;;;17.00;99.90;;;;;;4957271;28;20220;-81
2023/08/14 03:30:03;;;;;;;6.23;3.10;;;17.00;99.90;;;;;;4959686;28;20212;-82
2023/08/14 03:32:28;;;;;;;6.43;3.23;;;17.00;99.90;;;;;;4955573;28;20237;-81
2023/08/14 03:34:54;;;;;;;9.77;3.27;;;17.00;90.70;;;;;;4956684;28;20448;-82
2023/08/14 03:37:19;;;;;;;7.40;2.77;;;17.00;43.10;;;;;;4956039;28;20249;-83
2023/08/14 03:39:45;;;;;;;11.17;3.90;;;17.00;1.00;;;;;;4953569;28;20451;-81
2023/08/14 03:42:10;;;;;;;6.77;3.70;;;17.00;1.00;;;;;;4955255;28;20185;-82
2023/08/14 03:44:36;;;;;;;8.37;3.23;;;17.10;1.00;;;;;;4957698;28;20185;-82
2023/08/14 03:47:01;;;;;;;7.83;3.90;;;17.00;1.00;;;;;;4958708;28;20751;-82
2023/08/14 03:49:27;;;;;;;8.20;3.43;;;17.00;1.00;;;;;;4956053;28;20277;-84
2023/08/14 03:51:52;;;;;;;11.17;3.43;;;17.00;1.00;;;;;;4958420;28;20216;-80
2023/08/14 03:54:18;;;;;;;7.80;3.67;;;17.00;1.00;;;;;;4955501;28;20199;-81
2023/08/14 03:56:43;;;;;;;4.97;3.20;;;17.00;1.00;;;;;;4954842;28;20189;-80
2023/08/14 03:59:09;;;;;;;10.73;3.57;;;17.00;1.00;;;;;;4950874;28;20213;-83
2023/08/14 04:01:36;;;;;;;6.90;3.23;;;16.90;1.00;;;;;;4958811;28;20197;-82
2023/08/14 04:04:02;;;;;;;6.43;3.40;;;16.90;1.00;;;;;;4973628;28;20911;-84
2023/08/14 04:06:28;;;;;;;6.60;3.37;;;16.90;1.00;;;;;;4958913;28;20469;-83
2023/08/14 04:08:54;;;;;;;6.60;3.60;;;16.90;1.00;;;;;;4952866;28;20476;-82
2023/08/14 04:11:19;;;;;;;10.80;3.67;;;16.90;1.00;;;;;;4955415;28;20701;-83
2023/08/14 04:13:45;;;;;;;8.90;4.33;;;16.90;1.00;;;;;;4959664;28;20231;-80
2023/08/14 04:16:10;;;;;;;5.43;2.73;;;16.90;99.90;;;;;;4954512;28;20185;-82
2023/08/14 04:18:36;;;;;;;6.80;3.40;;;16.90;99.90;;;;;;4950958;28;20186;-81
2023/08/14 04:21:03;;;;;;;5.60;3.70;;;16.90;99.90;;;;;;4956092;28;20212;-81
2023/08/14 04:23:30;;;;;;;7.70;3.13;;;16.90;99.90;;;;;;4960635;28;20185;-82
2023/08/14 04:25:56;;;;;;;7.30;3.70;;;16.80;99.90;;;;;;4954535;28;20779;-82
2023/08/14 04:28:21;;;;;;;4.97;3.20;;;16.90;99.90;;;;;;4957495;28;20491;-82
2023/08/14 04:30:47;;;;;;;8.00;3.10;;;16.90;99.90;;;;;;4953825;28;20846;-81
2023/08/14 04:33:13;;;;;;;6.43;3.50;;;16.90;99.90;;;;;;4956905;28;20532;-82
2023/08/14 04:35:38;;;;;;;6.93;3.10;;;16.90;99.70;;;;;;4954931;28;20491;-81
2023/08/14 04:38:04;;;;;;;6.97;3.50;;;16.90;32.30;;;;;;4958181;28;20196;-83
2023/08/14 04:40:30;;;;;;;10.00;4.63;;;17.00;50.80;;;;;;4953276;28;20204;-83
2023/08/14 04:42:55;;;;;;;8.57;3.40;;;17.00;59.50;;;;;;4961513;28;20820;-84
2023/08/14 04:45:21;;;;;;;12.67;3.30;;;17.00;42.30;;;;;;4955425;28;20248;-84
2023/08/14 04:47:47;;;;;;;9.57;3.33;;;17.00;1.00;;;;;;4953282;28;20265;-82
2023/08/14 04:50:12;;;;;;;11.10;4.13;;;17.10;1.00;;;;;;4971418;28;20458;-81
2023/08/14 04:52:38;;;;;;;11.57;3.40;;;17.10;1.00;;;;;;4956205;28;20277;-82
2023/08/14 04:55:05;;;;;;;7.67;3.60;;;17.10;1.00;;;;;;4959888;28;20193;-79
2023/08/14 04:57:31;;;;;;;6.63;3.50;;;17.20;1.00;;;;;;4955356;28;20187;-81
2023/08/14 04:59:56;;;;;;;9.73;3.30;;;17.30;1.00;;;;;;4961060;28;20466;-81
2023/08/14 05:02:22;;;;;;;9.30;3.67;;;17.30;99.90;;;;;;4970065;28;20188;-83
2023/08/14 05:04:47;;;;;;;7.10;3.90;;;17.40;99.90;;;;;;4961216;28;20183;-81
2023/08/14 05:07:13;;;;;;;7.57;3.57;;;17.50;99.90;;;;;;4956879;28;20192;-81
2023/08/14 05:09:38;;;;;;;6.53;3.60;;;17.50;99.90;;;;;;4957915;28;20214;-81
2023/08/14 05:12:04;;;;;;;9.30;4.07;;;17.60;47.90;;;;;;4962756;28;20203;-82
2023/08/14 05:14:30;;;;;;;9.87;3.63;;;17.60;1.00;;;;;;4958050;28;20200;-83
2023/08/14 05:16:55;;;;;;;7.67;3.40;;;17.70;1.00;;;;;;4956901;28;20439;-83
2023/08/14 05:19:21;;;;;;;6.10;3.50;;;17.80;1.00;;;;;;4960707;28;20214;-80
2023/08/14 05:21:46;;;;;;;12.40;3.37;;;18.00;99.90;;;;;;4964043;28;20198;-82
2023/08/14 05:24:14;;;;;;;6.87;4.30;;;18.20;99.90;;;;;;4958234;28;20188;-82
2023/08/14 05:26:39;;;;;;;8.93;3.43;;;18.40;99.90;;;;;;4962581;28;20855;-82
2023/08/14 05:29:05;;;;;;;9.30;3.80;;;18.70;1.00;;;;;;4961017;28;20518;-83
2023/08/14 05:31:30;;;;;;;7.57;4.10;;;19.10;1.00;;;;;;4964142;28;20183;-82
2023/08/14 05:33:56;;;;;;;9.90;4.00;;;20.50;99.90;;;;;;4972373;28;20188;-81
2023/08/14 05:36:21;;;;;;;9.03;2.70;;;23.10;1.00;;;;;;4961394;28;20197;-81
2023/08/14 05:38:47;;;;;;;10.47;3.60;;;25.40;1.00;;;;;;4961390;28;20601;-83
2023/08/14 05:41:12;;;;;;;6.97;3.07;;;26.70;1.00;;;;;;4961453;28;20696;-83
2023/08/14 05:43:38;;;;;;;5.43;3.13;;;27.70;1.00;;;;;;4960535;28;20714;-82
2023/08/14 05:46:04;;;;;;;7.03;3.00;;;28.10;1.00;;;;;;4958939;28;20196;-85
2023/08/14 05:48:29;;;;;;;8.63;3.27;;;28.70;1.00;;;;;;4959001;28;20299;-84
2023/08/14 05:50:54;;;;;;;8.17;3.43;;;28.90;1.00;;;;;;4957541;28;20216;-84
2023/08/14 05:53:20;;;;;;;6.10;3.23;;;28.50;1.00;;;;;;4958419;28;20784;-83
2023/08/14 05:55:46;;;;;;;7.70;3.90;;;27.00;1.00;;;;;;4959007;28;20190;-85
2023/08/14 05:58:11;;;;;;;16.57;3.80;;;25.90;1.00;;;;;;4961598;28;20193;-81
2023/08/14 06:00:37;;;;;;;8.80;3.83;;;24.80;1.00;;;;;;4967281;28;20788;-83
2023/08/14 06:03:04;;;;;;;8.67;3.80;;;23.90;1.00;;;;;;4976357;28;20188;-84
2023/08/14 06:05:30;;;;;;;6.97;4.10;;;22.80;1.00;;;;;;4964309;28;20454;-81
2023/08/14 06:07:56;;;;;;;8.73;3.90;;;22.20;1.00;;;;;;4961838;28;20474;-84
2023/08/14 06:10:22;;;;;;;10.40;3.97;;;21.50;1.00;;;;;;4959662;28;20232;-83
2023/08/14 06:12:49;;;;;;;11.90;3.63;;;21.50;1.00;;;;;;4963440;28;20465;-83
2023/08/14 06:15:16;;;;;;;6.83;3.20;;;21.30;1.00;;;;;;4966235;28;20478;-82
2023/08/14 06:17:42;;;;;;;11.60;3.60;;;21.60;1.00;;;;;;4962594;28;20839;-83
2023/08/14 06:20:11;;;;;;;12.47;4.07;;;22.00;1.00;;;;;;4954890;28;20471;-83
2023/08/14 06:22:44;;;;;;;10.10;3.10;;;22.20;1.00;;;;;;4954083;28;20940;-83
2023/08/14 06:25:11;;;;;;;9.97;3.17;;;22.70;1.00;;;;;;4951550;28;20532;-83
2023/08/14 06:27:36;;;;;;;7.20;3.63;;;23.10;1.00;;;;;;4957176;28;20443;-84
2023/08/14 06:30:02;;;;;;;7.23;2.93;;;24.20;1.00;;;;;;4953090;28;20471;-83
2023/08/14 06:32:28;;;;;;;9.73;3.60;;;25.10;1.00;;;;;;4959999;28;20825;-82
2023/08/14 06:34:53;;;;;;;10.00;2.97;;;26.10;1.00;;;;;;4960953;28;20199;-83
2023/08/14 06:37:19;;;;;;;5.63;3.00;;;28.30;1.00;;;;;;4958479;28;20180;-84
2023/08/14 06:39:44;;;;;;;8.47;3.27;;;30.20;1.00;;;;;;4955549;28;20216;-83
2023/08/14 06:42:10;;;;;;;10.63;3.47;;;30.40;1.00;;;;;;4954588;28;20192;-84
2023/08/14 06:44:35;;;;;;;8.30;3.10;;;29.40;1.00;;;;;;4955713;28;20607;-85
2023/08/14 06:47:01;;;;;;;10.20;3.20;;;28.40;1.00;;;;;;4958369;28;20192;-83
2023/08/14 06:49:28;;;;;;;10.07;3.83;;;27.30;1.00;;;;;;4963266;28;20695;-80
2023/08/14 06:51:54;;;;;;;8.87;3.27;;;26.70;1.00;;;;;;4960447;28;20438;-82
2023/08/14 06:54:19;;;;;;;6.13;2.70;;;26.30;1.00;;;;;;4960759;28;20181;-81
2023/08/14 06:56:46;;;;;;;4.43;2.60;;;26.00;1.00;;;;;;4969840;28;20275;-80
2023/08/14 06:59:11;;;;;;;9.20;3.10;;;25.50;1.00;;;;;;4954762;28;20212;-81
2023/08/14 07:01:37;;;;;;;6.90;3.90;;;25.00;1.00;;;;;;4954104;28;21016;-82
2023/08/14 07:04:03;;;;;;;5.73;3.03;;;24.90;1.00;;;;;;4961072;28;20576;-79
2023/08/14 07:06:29;;;;;;;6.13;2.30;;;24.80;1.00;;;;;;4961851;28;20667;-80
2023/08/14 07:08:55;;;;;;;9.03;3.90;;;24.40;1.00;;;;;;4953888;28;20579;-79
2023/08/14 07:11:20;;;;;;;11.37;3.30;;;24.10;1.00;;;;;;4963749;28;20247;-83
2023/08/14 07:13:46;;;;;;;8.13;3.20;;;23.80;1.00;;;;;;4960758;28;20212;-81
2023/08/14 07:16:12;;;;;;;7.27;3.00;;;23.80;1.00;;;;;;4959401;28;20191;-81
2023/08/14 07:18:37;;;;;;;8.63;2.80;;;24.20;1.00;;;;;;4958931;28;20193;-83
2023/08/14 07:21:03;;;;;;;6.73;2.77;;;24.80;1.00;;;;;;4958556;28;20326;-80
2023/08/14 07:23:28;;;;;;;9.00;3.20;;;25.30;1.00;;;;;;4960423;28;20203;-82
2023/08/14 07:25:57;;;;;;;5.57;2.83;;;26.70;1.00;;;;;;4974417;28;20198;-81
2023/08/14 07:28:23;;;;;;;4.13;2.37;;;28.00;1.00;;;;;;4970976;28;20216;-80
2023/08/14 07:30:48;;;;;;;9.07;3.20;;;28.90;1.00;;;;;;4968060;28;20459;-82
2023/08/14 07:33:15;;;;;;;7.40;3.60;;;28.50;1.00;;;;;;4971728;28;20211;-84
2023/08/14 07:35:41;;;;;;;6.43;3.13;;;28.10;1.00;;;;;;4964273;28;20733;-81
2023/08/14 07:38:07;;;;;;;6.10;2.50;;;27.30;1.00;;;;;;4970591;28;20444;-82
2023/08/14 07:40:33;;;;;;;7.53;2.67;;;27.40;1.00;;;;;;4962469;28;20481;-80
2023/08/14 07:42:58;;;;;;;5.70;2.57;;;28.80;1.00;;;;;;4967678;28;20189;-83
2023/08/14 07:45:24;;;;;;;6.10;2.30;;;34.90;1.00;;;;;;4967007;28;20620;-83
2023/08/14 07:47:49;;;;;;;4.80;2.67;;;38.50;1.00;;;;;;4964471;28;20212;-82
2023/08/14 07:50:15;;;;;;;6.97;2.40;;;37.90;99.90;;;;;;4960771;28;20204;-83
2023/08/14 07:52:40;;;;;;;4.50;2.47;;;38.30;99.90;;;;;;4970190;28;20180;-81
2023/08/14 07:55:06;;;;;;;3.83;2.23;;;36.20;99.90;;;;;;4972247;28;20647;-80
2023/08/14 07:57:32;;;;;;;4.87;2.83;;;37.90;99.90;;;;;;4973346;28;20226;-83
2023/08/14 07:59:57;;;;;;;5.70;2.50;;;41.30;99.90;;;;;;4955238;28;20212;-83
2023/08/14 08:02:23;;;;;;;4.70;2.43;;;43.80;99.90;;;;;;4966214;28;20180;-83
2023/08/14 08:04:49;;;;;;;7.00;2.20;;;44.60;99.90;;;;;;4960561;28;20684;-81
2023/08/14 08:07:14;;;;;;;5.90;2.20;;;46.90;99.90;;;;;;4968441;28;20198;-81
2023/08/14 08:09:40;;;;;;;9.20;2.70;;;48.10;99.90;;;;;;4962406;28;20215;-83
2023/08/14 08:12:06;;;;;;;7.90;2.30;;;48.20;99.90;;;;;;4960649;28;20310;-81
2023/08/14 08:14:36;;;;;;;5.90;1.90;;;48.60;99.90;;;;;;4959528;28;20669;-83
2023/08/14 08:17:02;;;;;;;4.30;1.97;;;48.40;99.90;;;;;;4964194;28;20913;-82
2023/08/14 08:19:27;;;;;;;5.63;2.33;;;47.60;99.90;;;;;;4963073;28;20527;-80
2023/08/14 08:21:53;;;;;;;4.17;1.97;;;47.40;99.90;;;;;;4960612;28;20190;-83
2023/08/14 08:24:21;;;;;;;6.30;2.60;;;47.40;99.90;;;;;;4958981;28;20188;-81
2023/08/14 08:26:47;;;;;;;4.53;2.10;;;47.10;99.90;;;;;;4974059;28;20306;-83
2023/08/14 08:29:12;;;;;;;8.00;1.90;;;45.10;99.90;;;;;;4965834;28;20503;-84
2023/08/14 08:31:38;;;;;;;5.90;2.30;;;46.30;99.90;;;;;;4962166;28;20686;-81
2023/08/14 08:34:03;;;;;;;3.43;2.03;;;48.70;99.90;;;;;;4957854;28;20191;-83
2023/08/14 08:36:29;;;;;;;6.90;1.90;;;49.30;99.90;;;;;;4961979;28;20219;-82
2023/08/14 08:38:55;;;;;;;5.90;1.90;;;51.00;99.90;;;;;;4963173;28;20196;-84
2023/08/14 08:41:23;;;;;;;4.57;1.90;;;51.90;99.90;;;;;;4963179;28;20267;-84
2023/08/14 08:44:00;;;;;;;4.75;1.98;;;53.10;99.90;;;;;;4963628;28;20210;-83
2023/08/14 08:46:26;;;;;;;5.40;1.80;;;53.30;99.90;;;;;;4964587;28;20621;-84
2023/08/14 08:48:51;;;;;;;4.65;1.80;;;53.80;99.90;;;;;;4963548;28;20300;-83
2023/08/14 08:51:17;;;;;;;5.07;1.90;;;53.40;99.90;;;;;;4962970;28;20254;-82
2023/08/14 08:53:43;;;;;;;2.33;1.50;;;54.30;99.90;;;;;;4962986;28;20180;-83
2023/08/14 08:56:10;;;;;;;7.68;1.70;;;54.50;99.90;;;;;;4960780;28;20207;-83
2023/08/14 08:58:35;;;;;;;3.95;1.95;;;54.70;99.90;;;;;;4972592;28;20227;-85
2023/08/14 09:01:01;;;;;;;4.75;1.60;;;54.20;99.90;;;;;;4953663;28;20614;-83
2023/08/14 09:03:27;;;;;;;3.67;1.92;;;53.70;99.90;;;;;;4960799;28;20211;-83
2023/08/14 09:05:53;;;;;;;4.93;1.60;;;54.10;99.90;;;;;;4962470;28;20187;-82
2023/08/14 09:08:19;;;;;;;3.93;1.57;;;53.50;99.90;;;;;;4964841;28;20206;-82
2023/08/14 09:10:45;;;;;;;4.87;1.80;;;49.90;99.90;;;;;;4962526;28;20290;-84
2023/08/14 09:13:10;;;;;;;4.63;1.60;;;49.20;99.90;;;;;;4973011;28;20192;-84
2023/08/14 09:15:42;;;;;;;3.87;1.90;;;48.00;99.90;;;;;;4958617;28;20185;-86
2023/08/14 09:18:09;;;;;;;2.93;1.50;;;46.50;99.90;;;;;;4955666;28;20188;-82
2023/08/14 09:20:35;;;;;;;3.30;1.70;;;44.00;99.90;;;;;;4961340;28;20448;-83
2023/08/14 09:23:00;;;;;;;8.70;1.80;;;42.40;99.90;;;;;;4964867;28;20855;-81
2023/08/14 09:25:27;;;;;;;4.10;1.80;;;40.20;99.90;;;;;;4981855;28;20679;-80
2023/08/14 09:27:57;;;;;;;3.87;1.80;;;39.30;99.90;;;;;;4964691;28;20611;-82
2023/08/14 09:30:25;;;;;;;4.80;1.60;;;40.90;99.90;;;;;;4974009;28;20979;-83
2023/08/14 09:32:51;;;;;;;12.73;1.67;;;42.60;99.90;;;;;;4965946;28;20479;-82
2023/08/14 09:35:16;;;;;;;3.27;1.37;;;42.70;99.90;;;;;;4962868;28;20890;-82
2023/08/14 09:37:42;;;;;;;4.87;1.70;;;41.70;99.90;;;;;;4965367;28;20208;-82
2023/08/14 09:40:16;;;;;;;2.90;1.53;;;41.40;99.90;;;;;;4965653;28;20208;-84
2023/08/14 09:42:46;;;;;;;5.93;1.77;;;42.30;99.90;;;;;;4969452;28;20693;-79
2023/08/14 09:45:13;;;;;;;6.63;2.13;;;42.30;99.90;;;;;;4973235;28;20503;-82
2023/08/14 09:47:41;;;;;;;3.40;1.73;;;44.10;99.90;;;;;;4967885;28;20452;-84
2023/08/14 09:50:07;;;;;;;4.07;1.70;;;46.20;99.90;;;;;;4963474;28;20987;-83
2023/08/14 09:52:33;;;;;;;6.13;1.80;;;47.50;99.90;;;;;;4974776;28;20447;-83
2023/08/14 09:55:02;;;;;;;6.93;1.93;;;48.80;99.90;;;;;;4962107;28;20234;-86
2023/08/14 09:57:28;;;;;;;4.50;1.67;;;49.30;99.90;;;;;;4981916;28;20207;-84
2023/08/14 09:59:54;;;;;;;5.07;1.80;;;50.00;99.90;;;;;;4970484;28;20533;-84
2023/08/14 10:02:23;;;;;;;3.73;1.43;;;50.40;99.90;;;;;;4970972;28;20251;-84
2023/08/14 10:04:49;;;;;;;3.10;1.40;;;50.60;99.90;;;;;;4981549;28;20175;-84
2023/08/14 10:07:16;;;;;;;2.73;1.33;;;50.90;99.90;;;;;;4976631;28;20184;-84
2023/08/14 10:09:48;;;;;;;3.60;1.97;;;51.00;99.90;;;;;;4969709;28;20290;-82
2023/08/14 10:12:16;;;;;;;3.90;1.63;;;50.90;99.90;;;;;;4968636;28;20175;-82
2023/08/14 10:14:47;;;;;;;3.57;2.10;;;51.00;99.90;;;;;;4959759;28;20677;-84
2023/08/14 10:17:19;;;;;;;4.00;1.80;;;51.40;99.90;;;;;;4970463;28;20187;-84
2023/08/14 10:19:51;;;;;;;5.20;1.73;;;51.40;99.90;;;;;;4962784;28;20215;-84
2023/08/14 10:22:19;;;;;;;6.40;2.00;;;51.40;99.90;;;;;;4959675;28;20495;-83
2023/08/14 10:24:45;;;;;;;3.93;1.90;;;51.30;99.90;;;;;;4962822;28;20450;-83
2023/08/14 10:27:11;;;;;;;4.30;1.37;;;51.00;99.90;;;;;;4969336;28;20891;-84
2023/08/14 10:29:37;;;;;;;3.27;1.63;;;51.20;99.90;;;;;;4958308;28;20566;-83
2023/08/14 10:32:05;;;;;;;7.03;1.70;;;51.40;99.90;;;;;;4964497;28;20527;-84
2023/08/14 10:34:32;;;;;;;5.70;2.10;;;51.40;99.90;;;;;;4964684;28;20442;-84
2023/08/14 10:36:57;;;;;;;4.93;1.60;;;51.00;99.90;;;;;;4972664;28;20479;-83
2023/08/14 10:39:36;;;;;;;4.23;1.90;;;50.50;99.90;;;;;;4970076;28;20456;-84
2023/08/14 10:42:06;;;;;;;2.97;1.63;;;50.20;99.90;;;;;;4970107;28;20184;-82
2023/08/14 10:44:34;;;;;;;4.13;1.53;;;49.80;99.90;;;;;;4971581;28;20534;-84
2023/08/14 10:47:10;;;;;;;3.80;1.70;;;49.50;99.90;;;;;;4969817;28;20451;-83
2023/08/14 10:49:48;;;;;;;5.77;1.70;;;49.40;99.90;;;;;;4969929;28;20502;-82
2023/08/14 10:52:21;;;;;;;7.50;2.00;;;48.90;99.90;;;;;;4966864;28;20517;-83
2023/08/14 10:54:51;;;;;;;4.50;2.07;;;48.60;99.90;;;;;;4965496;28;20501;-83
2023/08/14 10:57:17;;;;;;;2.73;1.50;;;48.70;99.90;;;;;;4966246;28;20490;-82
2023/08/14 10:59:54;;;;;;;4.47;1.60;;;48.00;99.90;;;;;;4977771;28;20457;-82
2023/08/14 11:02:20;;;;;;;3.70;1.67;;;48.20;99.90;;;;;;4979385;28;20206;-84
2023/08/14 11:05:00;;;;;;;7.43;1.70;;;47.40;99.90;;;;;;4966151;28;20447;-82
2023/08/14 11:07:34;;;;;;;2.13;1.07;;;47.70;99.90;;;;;;4961109;28;20736;-82
2023/08/14 11:10:02;;;;;;;3.10;1.40;;;47.80;99.90;;;;;;4962113;28;20523;-83
2023/08/14 11:12:28;;;;;;;3.20;1.60;;;47.70;99.90;;;;;;4971412;28;20489;-83
2023/08/14 11:14:54;;;;;;;3.07;1.33;;;47.70;99.90;;;;;;4964128;28;20439;-81
2023/08/14 11:17:22;;;;;;;4.90;2.00;;;47.40;99.90;;;;;;4966443;28;20244;-82
2023/08/14 11:19:49;;;;;;;5.60;1.70;;;46.70;99.90;;;;;;4963567;28;20456;-83
2023/08/14 11:22:14;;;;;;;6.50;1.80;;;46.60;99.90;;;;;;4966897;28;20439;-82
2023/08/14 11:24:41;;;;;;;2.93;1.70;;;46.20;99.90;;;;;;4961126;28;20435;-83
2023/08/14 11:27:07;;;;;;;3.27;1.60;;;46.10;99.90;;;;;;4965957;28;20187;-83
2023/08/14 11:29:33;;;;;;;5.03;2.00;;;46.20;99.90;;;;;;4962607;28;20475;-83
2023/08/14 11:32:00;;;;;;;2.80;1.30;;;46.10;99.90;;;;;;4966203;28;20675;-82
2023/08/14 11:34:25;;;;;;;3.30;2.03;;;46.10;99.90;;;;;;4969051;28;20459;-82
2023/08/14 11:36:59;;;;;;;4.13;1.57;;;45.90;99.90;;;;;;4965846;28;20451;-82
2023/08/14 11:39:25;;;;;;;2.83;1.30;;;45.90;99.90;;;;;;4971305;28;20243;-81
2023/08/14 11:41:51;;;;;;;5.97;2.20;;;46.10;99.90;;;;;;4966573;28;20476;-80
2023/08/14 11:44:17;;;;;;;3.80;1.70;;;45.90;99.90;;;;;;4967628;28;20435;-81
2023/08/14 11:46:43;;;;;;;4.40;1.90;;;46.00;99.90;;;;;;4965622;28;20283;-80
2023/08/14 11:49:12;;;;;;;4.53;1.53;;;45.20;99.90;;;;;;4955798;28;20212;-82
2023/08/14 11:51:40;;;;;;;4.23;2.03;;;44.40;99.90;;;;;;4969099;28;20189;-81
2023/08/14 11:54:06;;;;;;;4.97;1.90;;;44.40;99.90;;;;;;4968644;28;20945;-82
2023/08/14 11:56:32;;;;;;;4.67;1.80;;;44.70;99.90;;;;;;4973774;28;20443;-81
2023/08/14 11:58:57;;;;;;;5.40;2.00;;;44.40;99.90;;;;;;4966814;28;20440;-82
2023/08/14 12:01:23;;;;;;;3.03;1.70;;;44.40;99.90;;;;;;4961325;28;20271;-83
2023/08/14 12:03:50;;;;;;;3.93;2.30;;;44.70;99.90;;;;;;4961411;28;20276;-82
2023/08/14 12:06:17;;;;;;;5.60;1.83;;;45.10;99.90;;;;;;4967468;28;20197;-82
2023/08/14 12:08:43;;;;;;;8.53;2.17;;;45.20;99.90;;;;;;4967867;28;20535;-84
2023/08/14 12:11:08;;;;;;;5.00;2.20;;;44.60;99.90;;;;;;4975819;28;20494;-83
2023/08/14 12:13:34;;;;;;;3.93;1.77;;;43.80;99.90;;;;;;4970594;28;20188;-85
2023/08/14 12:16:07;;;;;;;3.63;1.67;;;44.20;99.90;;;;;;4960986;28;20203;-86
2023/08/14 12:18:33;;;;;;;6.80;2.00;;;44.60;99.90;;;;;;4966012;28;20187;-82
2023/08/14 12:20:59;;;;;;;5.80;1.90;;;44.30;99.90;;;;;;4964808;28;20578;-85
2023/08/14 12:23:24;;;;;;;8.10;1.80;;;43.70;99.90;;;;;;4964656;28;20530;-80
2023/08/14 12:25:51;;;;;;;5.30;2.40;;;43.00;99.90;;;;;;4975975;28;20230;-83
2023/08/14 12:28:19;;;;;;;8.43;2.23;;;42.70;99.90;;;;;;4974813;28;20722;-80
2023/08/14 12:30:49;;;;;;;7.30;2.23;;;42.10;99.90;;;;;;4970049;28;20505;-83
2023/08/14 12:33:15;;;;;;;4.90;2.00;;;40.90;99.90;;;;;;4964393;28;21039;-83
2023/08/14 12:35:41;;;;;;;8.17;2.10;;;40.30;99.90;;;;;;4961925;28;20442;-80
2023/08/14 12:38:06;;;;;;;4.43;1.63;;;39.80;99.90;;;;;;4960242;28;20954;-81
2023/08/14 12:40:33;;;;;;;4.17;1.93;;;40.10;99.90;;;;;;4965915;28;20218;-84
2023/08/14 12:42:58;;;;;;;8.30;2.40;;;40.60;99.90;;;;;;4964116;28;20203;-83
2023/08/14 12:45:24;;;;;;;6.80;2.70;;;40.50;99.90;;;;;;4971424;28;20935;-83
2023/08/14 12:47:49;;;;;;;5.30;2.50;;;40.20;99.90;;;;;;4958499;28;20596;-83